CFG7LC EDDF-LEPA
Flight info
| Callsign | CFG7LC |
|---|---|
| Flight time | N/A |
| Altitude | 29000 |
| Route | ANEKI2L/18 ANEKI Y163 HERBI/N0464F330 Y164 MOPAN DCT LUTIX DCT BENOT DCT NEMOS DCT GEVEA DCT INCUS DCT BALSI DCT RETNO DCT TUPOX DCT MTG DCT DIVKO DCT VATIR DCT PIVUS N852 VERSO L129 LUNIK |
| Aircraft | B753/M-SDE2E3FGHIJ3J4J7RWXY/LB1 |
Departure
| Time | 2026-05-06 19:55 |
|---|---|
| Airport | Frankfurt Main Airport (EDDF) |
Arrival
| Time | N/A |
|---|---|
| Airport | Palma de Mallorca Airport (LEPA) |
| Time | Latitude | Longitude | Altitude | Speed | Heading |
|---|---|---|---|---|---|
| 2026-05-06 19:28 | 50.04971 | 8.57682 | 378 ft | 0 kts | 21° |
| 2026-05-06 19:39 | 50.04971 | 8.57681 | 378 ft | 0 kts | 22° |
| 2026-05-06 19:40 | 50.04958 | 8.57674 | 378 ft | 2 kts | 21° |
| 2026-05-06 19:40 | 50.04944 | 8.57665 | 378 ft | 2 kts | 22° |
| 2026-05-06 19:40 | 50.04930 | 8.57656 | 378 ft | 2 kts | 36° |
| 2026-05-06 19:40 | 50.04919 | 8.57639 | 377 ft | 2 kts | 62° |
| 2026-05-06 19:41 | 50.04915 | 8.57616 | 377 ft | 2 kts | 86° |
| 2026-05-06 19:41 | 50.04916 | 8.57594 | 377 ft | 1 kts | 109° |
| 2026-05-06 19:41 | 50.04917 | 8.57589 | 377 ft | 0 kts | 114° |
| 2026-05-06 19:41 | 50.04908 | 8.57627 | 377 ft | 4 kts | 113° |
| 2026-05-06 19:42 | 50.04903 | 8.57644 | 377 ft | 0 kts | 113° |
| 2026-05-06 19:42 | 50.04908 | 8.57627 | 377 ft | 2 kts | 112° |
| 2026-05-06 19:42 | 50.04913 | 8.57606 | 377 ft | 2 kts | 113° |
| 2026-05-06 19:42 | 50.04919 | 8.57586 | 377 ft | 1 kts | 113° |
| 2026-05-06 19:43 | 50.04916 | 8.57594 | 377 ft | 3 kts | 116° |
| 2026-05-06 19:43 | 50.04909 | 8.57618 | 377 ft | 0 kts | 116° |
| 2026-05-06 19:43 | 50.04906 | 8.57625 | 377 ft | 0 kts | 114° |
| 2026-05-06 19:46 | 50.04905 | 8.57631 | 377 ft | 2 kts | 114° |
| 2026-05-06 19:47 | 50.04892 | 8.57676 | 377 ft | 7 kts | 114° |
| 2026-05-06 19:47 | 50.04866 | 8.57767 | 376 ft | 10 kts | 114° |
| 2026-05-06 19:47 | 50.04835 | 8.57864 | 376 ft | 9 kts | 128° |
| 2026-05-06 19:47 | 50.04790 | 8.57912 | 376 ft | 7 kts | 157° |
| 2026-05-06 19:48 | 50.04726 | 8.57912 | 375 ft | 12 kts | 207° |
| 2026-05-06 19:48 | 50.04682 | 8.57796 | 373 ft | 14 kts | 250° |
| 2026-05-06 19:48 | 50.04644 | 8.57633 | 372 ft | 17 kts | 250° |
| 2026-05-06 19:48 | 50.04595 | 8.57433 | 372 ft | 21 kts | 250° |
| 2026-05-06 19:49 | 50.04541 | 8.57204 | 373 ft | 24 kts | 250° |
| 2026-05-06 19:49 | 50.04477 | 8.56937 | 372 ft | 28 kts | 250° |
| 2026-05-06 19:49 | 50.04409 | 8.56656 | 367 ft | 27 kts | 250° |
| 2026-05-06 19:49 | 50.04340 | 8.56366 | 363 ft | 29 kts | 250° |
| 2026-05-06 19:50 | 50.04272 | 8.56079 | 361 ft | 27 kts | 250° |
| 2026-05-06 19:50 | 50.04205 | 8.55804 | 357 ft | 26 kts | 250° |
| 2026-05-06 19:50 | 50.04143 | 8.55540 | 358 ft | 24 kts | 250° |
| 2026-05-06 19:50 | 50.04086 | 8.55302 | 356 ft | 24 kts | 250° |
| 2026-05-06 19:51 | 50.04021 | 8.55035 | 351 ft | 28 kts | 250° |
| 2026-05-06 19:51 | 50.03950 | 8.54736 | 347 ft | 29 kts | 250° |
| 2026-05-06 19:51 | 50.03889 | 8.54476 | 344 ft | 13 kts | 250° |
| 2026-05-06 19:51 | 50.03854 | 8.54356 | 344 ft | 12 kts | 236° |
| 2026-05-06 19:52 | 50.03803 | 8.54237 | 344 ft | 14 kts | 247° |
| 2026-05-06 19:52 | 50.03760 | 8.54060 | 347 ft | 20 kts | 250° |
| 2026-05-06 19:52 | 50.03702 | 8.53823 | 350 ft | 26 kts | 249° |
| 2026-05-06 19:52 | 50.03634 | 8.53537 | 349 ft | 29 kts | 250° |
| 2026-05-06 19:53 | 50.03561 | 8.53240 | 344 ft | 29 kts | 250° |
| 2026-05-06 19:53 | 50.03492 | 8.52954 | 343 ft | 27 kts | 249° |
| 2026-05-06 19:53 | 50.03439 | 8.52754 | 342 ft | 7 kts | 249° |
| 2026-05-06 19:53 | 50.03434 | 8.52735 | 342 ft | 1 kts | 249° |
| 2026-05-06 19:54 | 50.03421 | 8.52686 | 341 ft | 7 kts | 247° |
| 2026-05-06 19:54 | 50.03387 | 8.52607 | 341 ft | 10 kts | 211° |
| 2026-05-06 19:54 | 50.03289 | 8.52594 | 339 ft | 24 kts | 180° |
| 2026-05-06 19:54 | 50.02919 | 8.52597 | 331 ft | 82 kts | 180° |
| 2026-05-06 19:55 | 50.02162 | 8.52605 | 330 ft | 135 kts | 180° |
| 2026-05-06 19:55 | 50.01039 | 8.52620 | 350 ft | 182 kts | 181° |
| 2026-05-06 19:55 | 49.99743 | 8.52652 | 892 ft | 190 kts | 179° |
| 2026-05-06 19:55 | 49.98423 | 8.52755 | 1548 ft | 194 kts | 181° |
| 2026-05-06 19:56 | 49.97051 | 8.52710 | 2021 ft | 202 kts | 183° |
| 2026-05-06 19:56 | 49.95644 | 8.52764 | 2509 ft | 209 kts | 181° |
| 2026-05-06 19:56 | 49.94110 | 8.52819 | 2731 ft | 234 kts | 180° |
| 2026-05-06 19:56 | 49.92474 | 8.52928 | 3490 ft | 235 kts | 180° |
| 2026-05-06 19:57 | 49.90874 | 8.53034 | 4258 ft | 235 kts | 180° |
| 2026-05-06 19:57 | 49.89197 | 8.53148 | 4877 ft | 243 kts | 181° |
| 2026-05-06 19:57 | 49.87517 | 8.53237 | 5633 ft | 244 kts | 182° |
| 2026-05-06 19:57 | 49.85820 | 8.53298 | 6296 ft | 250 kts | 181° |
| 2026-05-06 19:58 | 49.84116 | 8.53425 | 7084 ft | 248 kts | 180° |
| 2026-05-06 19:58 | 49.82403 | 8.53574 | 7821 ft | 249 kts | 181° |
| 2026-05-06 19:58 | 49.80691 | 8.53703 | 8550 ft | 249 kts | 181° |
| 2026-05-06 19:58 | 49.78939 | 8.53821 | 9117 ft | 256 kts | 181° |
| 2026-05-06 19:59 | 49.77163 | 8.53938 | 9778 ft | 258 kts | 185° |
| 2026-05-06 19:59 | 49.75333 | 8.53742 | 9977 ft | 280 kts | 189° |
| 2026-05-06 19:59 | 49.73296 | 8.53458 | 10135 ft | 306 kts | 189° |
| 2026-05-06 19:59 | 49.71077 | 8.53165 | 10287 ft | 333 kts | 188° |
| 2026-05-06 20:00 | 49.68668 | 8.52846 | 10468 ft | 358 kts | 188° |
| 2026-05-06 20:00 | 49.66153 | 8.52518 | 11168 ft | 367 kts | 188° |
| 2026-05-06 20:00 | 49.63658 | 8.52195 | 12205 ft | 365 kts | 188° |
| 2026-05-06 20:00 | 49.61122 | 8.51862 | 12956 ft | 372 kts | 189° |
| 2026-05-06 20:01 | 49.58542 | 8.51523 | 13807 ft | 375 kts | 189° |
| 2026-05-06 20:01 | 49.55936 | 8.51181 | 14597 ft | 379 kts | 189° |
| 2026-05-06 20:01 | 49.53312 | 8.50836 | 15382 ft | 383 kts | 190° |
| 2026-05-06 20:01 | 49.50632 | 8.50484 | 16145 ft | 388 kts | 190° |
| 2026-05-06 20:02 | 49.47937 | 8.50130 | 16882 ft | 392 kts | 190° |
| 2026-05-06 20:02 | 49.45237 | 8.49776 | 17593 ft | 396 kts | 191° |
| 2026-05-06 20:02 | 49.42501 | 8.49418 | 18286 ft | 400 kts | 191° |
| 2026-05-06 20:02 | 49.39698 | 8.49051 | 18971 ft | 404 kts | 191° |
| 2026-05-06 20:03 | 49.36923 | 8.48689 | 19623 ft | 408 kts | 191° |
| 2026-05-06 20:03 | 49.34071 | 8.48317 | 20267 ft | 412 kts | 192° |
| 2026-05-06 20:03 | 49.31220 | 8.47945 | 20887 ft | 416 kts | 192° |
| 2026-05-06 20:03 | 49.28330 | 8.47570 | 21493 ft | 420 kts | 192° |
| 2026-05-06 20:04 | 49.25442 | 8.47194 | 22074 ft | 424 kts | 192° |
| 2026-05-06 20:04 | 49.22471 | 8.46807 | 22652 ft | 428 kts | 192° |
| 2026-05-06 20:04 | 49.19537 | 8.46425 | 23201 ft | 432 kts | 192° |
| 2026-05-06 20:04 | 49.16531 | 8.46035 | 23744 ft | 435 kts | 193° |
| 2026-05-06 20:05 | 49.13495 | 8.45641 | 24271 ft | 439 kts | 193° |
| 2026-05-06 20:05 | 49.10441 | 8.45245 | 24777 ft | 443 kts | 193° |
| 2026-05-06 20:05 | 49.07376 | 8.44845 | 25209 ft | 448 kts | 193° |
| 2026-05-06 20:05 | 49.04318 | 8.44224 | 25644 ft | 446 kts | 200° |
| 2026-05-06 20:06 | 49.01292 | 8.43132 | 26074 ft | 449 kts | 201° |
| 2026-05-06 20:06 | 48.98253 | 8.42034 | 26477 ft | 454 kts | 201° |
| 2026-05-06 20:06 | 48.95188 | 8.40949 | 26887 ft | 459 kts | 201° |
| 2026-05-06 20:06 | 48.92037 | 8.39844 | 27334 ft | 462 kts | 201° |
| 2026-05-06 20:07 | 48.88921 | 8.38757 | 27787 ft | 465 kts | 201° |
| 2026-05-06 20:07 | 48.85780 | 8.37668 | 28381 ft | 464 kts | 201° |
| 2026-05-06 20:07 | 48.82624 | 8.36574 | 28829 ft | 466 kts | 201° |
| 2026-05-06 20:07 | 48.79477 | 8.35483 | 28851 ft | 467 kts | 201° |
| 2026-05-06 20:08 | 48.73206 | 8.33216 | 28861 ft | 463 kts | 201° |
| 2026-05-06 20:08 | 48.66984 | 8.30943 | 28860 ft | 463 kts | 201° |
| 2026-05-06 20:09 | 48.60737 | 8.28669 | 28860 ft | 463 kts | 201° |
| 2026-05-06 20:09 | 48.54476 | 8.26395 | 28860 ft | 463 kts | 201° |
| 2026-05-06 20:10 | 48.48231 | 8.24132 | 28860 ft | 463 kts | 201° |
| 2026-05-06 20:10 | 48.42026 | 8.21864 | 28865 ft | 462 kts | 201° |
| 2026-05-06 20:11 | 48.35799 | 8.19593 | 28875 ft | 462 kts | 201° |
| 2026-05-06 20:11 | 48.29559 | 8.17322 | 28885 ft | 463 kts | 201° |
| 2026-05-06 20:12 | 48.23435 | 8.14660 | 28898 ft | 457 kts | 211° |
| 2026-05-06 20:12 | 48.17669 | 8.10496 | 29453 ft | 466 kts | 213° |
| 2026-05-06 20:13 | 48.14745 | 8.08356 | 29971 ft | 466 kts | 213° |
| 2026-05-06 20:13 | 48.11867 | 8.06244 | 30508 ft | 465 kts | 214° |
| 2026-05-06 20:13 | 48.08953 | 8.04103 | 31028 ft | 465 kts | 214° |
| 2026-05-06 20:13 | 48.06086 | 8.01996 | 31515 ft | 464 kts | 214° |
| 2026-05-06 20:14 | 48.03202 | 7.99877 | 31989 ft | 464 kts | 214° |
| 2026-05-06 20:14 | 48.00297 | 7.97744 | 32449 ft | 463 kts | 214° |
| 2026-05-06 20:14 | 47.97422 | 7.95635 | 32842 ft | 464 kts | 214° |
| 2026-05-06 20:14 | 47.94539 | 7.93520 | 32898 ft | 466 kts | 214° |
| 2026-05-06 20:15 | 47.88751 | 7.89290 | 32899 ft | 461 kts | 214° |
| 2026-05-06 20:15 | 47.83047 | 7.85125 | 32993 ft | 462 kts | 214° |
| 2026-05-06 20:16 | 47.77277 | 7.80924 | 32995 ft | 462 kts | 214° |
| 2026-05-06 20:16 | 47.71518 | 7.76742 | 32996 ft | 462 kts | 214° |
| 2026-05-06 20:17 | 47.65720 | 7.72543 | 32995 ft | 462 kts | 214° |
| 2026-05-06 20:17 | 47.59963 | 7.68382 | 32995 ft | 462 kts | 214° |
| 2026-05-06 20:18 | 47.54226 | 7.64247 | 32995 ft | 462 kts | 214° |
| 2026-05-06 20:18 | 47.48441 | 7.60087 | 32993 ft | 462 kts | 214° |
| 2026-05-06 20:19 | 47.42677 | 7.55953 | 32981 ft | 462 kts | 214° |
| 2026-05-06 20:19 | 47.36912 | 7.51828 | 32963 ft | 462 kts | 214° |
| 2026-05-06 20:20 | 47.31169 | 7.47729 | 32944 ft | 462 kts | 214° |
| 2026-05-06 20:20 | 47.25396 | 7.43617 | 32935 ft | 462 kts | 214° |
| 2026-05-06 20:21 | 47.19649 | 7.39507 | 32933 ft | 459 kts | 217° |
| 2026-05-06 20:21 | 47.17001 | 7.37045 | 32940 ft | 448 kts | 226° |
| 2026-05-06 20:21 | 47.14703 | 7.34026 | 32946 ft | 439 kts | 234° |
| 2026-05-06 20:22 | 47.10815 | 7.27182 | 32944 ft | 435 kts | 238° |
| 2026-05-06 20:22 | 47.07030 | 7.20315 | 32944 ft | 434 kts | 238° |
| 2026-05-06 20:23 | 47.03217 | 7.13506 | 32943 ft | 434 kts | 237° |
| 2026-05-06 20:23 | 46.99378 | 7.06631 | 32943 ft | 438 kts | 237° |
| 2026-05-06 20:24 | 46.95552 | 6.99702 | 32941 ft | 441 kts | 236° |
| 2026-05-06 20:24 | 46.91692 | 6.92709 | 32940 ft | 444 kts | 234° |
| 2026-05-06 20:25 | 46.87096 | 6.86538 | 32939 ft | 455 kts | 224° |
| 2026-05-06 20:25 | 46.82230 | 6.80697 | 32936 ft | 455 kts | 224° |
| 2026-05-06 20:26 | 46.77329 | 6.74852 | 32936 ft | 455 kts | 224° |
| 2026-05-06 20:26 | 46.72436 | 6.69041 | 32936 ft | 455 kts | 224° |
| 2026-05-06 20:27 | 46.67553 | 6.63258 | 32939 ft | 455 kts | 224° |
| 2026-05-06 20:27 | 46.62671 | 6.57491 | 32951 ft | 455 kts | 224° |
| 2026-05-06 20:28 | 46.57755 | 6.51699 | 32973 ft | 455 kts | 224° |
| 2026-05-06 20:28 | 46.52834 | 6.45915 | 32995 ft | 455 kts | 224° |
| 2026-05-06 20:29 | 46.47927 | 6.40162 | 32995 ft | 455 kts | 224° |
| 2026-05-06 20:29 | 46.43022 | 6.34424 | 32996 ft | 455 kts | 223° |
| 2026-05-06 20:30 | 46.35631 | 6.25804 | 33002 ft | 455 kts | 223° |
| 2026-05-06 20:31 | 46.30723 | 6.20096 | 33002 ft | 455 kts | 223° |
| 2026-05-06 20:31 | 46.25496 | 6.14849 | 33008 ft | 463 kts | 211° |
| 2026-05-06 20:32 | 46.19343 | 6.12025 | 33003 ft | 476 kts | 195° |
| 2026-05-06 20:32 | 46.12821 | 6.10499 | 32982 ft | 477 kts | 194° |
| 2026-05-06 20:33 | 46.06286 | 6.09018 | 32969 ft | 477 kts | 194° |
| 2026-05-06 20:33 | 45.99735 | 6.07556 | 32968 ft | 477 kts | 194° |
| 2026-05-06 20:34 | 45.93212 | 6.06112 | 32968 ft | 477 kts | 194° |
| 2026-05-06 20:34 | 45.86661 | 6.04667 | 32965 ft | 477 kts | 194° |
| 2026-05-06 20:35 | 45.80111 | 6.03220 | 32965 ft | 477 kts | 194° |
| 2026-05-06 20:35 | 45.73592 | 6.01781 | 32965 ft | 477 kts | 194° |
| 2026-05-06 20:36 | 45.67050 | 6.00340 | 32965 ft | 477 kts | 194° |
| 2026-05-06 20:36 | 45.60506 | 5.98901 | 32965 ft | 477 kts | 194° |
| 2026-05-06 20:37 | 45.54009 | 5.97477 | 32965 ft | 477 kts | 194° |
| 2026-05-06 20:37 | 45.47457 | 5.96042 | 32965 ft | 476 kts | 194° |
| 2026-05-06 20:38 | 45.41020 | 5.94089 | 32966 ft | 474 kts | 198° |
| 2026-05-06 20:38 | 45.34616 | 5.92076 | 32966 ft | 474 kts | 198° |
| 2026-05-06 20:39 | 45.28228 | 5.90080 | 32966 ft | 474 kts | 198° |
| 2026-05-06 20:39 | 45.21810 | 5.88083 | 32966 ft | 474 kts | 198° |
| 2026-05-06 20:40 | 45.15406 | 5.86096 | 32966 ft | 474 kts | 198° |
| 2026-05-06 20:40 | 45.08964 | 5.84103 | 32965 ft | 475 kts | 198° |
| 2026-05-06 20:41 | 45.02503 | 5.82108 | 32968 ft | 484 kts | 199° |
| 2026-05-06 20:41 | 44.95851 | 5.80058 | 32969 ft | 493 kts | 199° |
| 2026-05-06 20:42 | 44.89153 | 5.77999 | 32965 ft | 494 kts | 199° |
| 2026-05-06 20:42 | 44.82500 | 5.75960 | 32960 ft | 493 kts | 199° |
| 2026-05-06 20:43 | 44.75800 | 5.73911 | 32960 ft | 493 kts | 199° |
| 2026-05-06 20:43 | 44.69149 | 5.71881 | 32961 ft | 493 kts | 199° |
| 2026-05-06 20:44 | 44.62436 | 5.69837 | 32961 ft | 493 kts | 199° |
| 2026-05-06 20:44 | 44.55777 | 5.67815 | 32951 ft | 493 kts | 199° |
| 2026-05-06 20:45 | 44.49103 | 5.65792 | 32940 ft | 493 kts | 199° |
| 2026-05-06 20:45 | 44.42402 | 5.63766 | 32936 ft | 494 kts | 199° |
| 2026-05-06 20:46 | 44.35799 | 5.61429 | 32940 ft | 484 kts | 208° |
| 2026-05-06 20:46 | 44.29605 | 5.58018 | 32936 ft | 482 kts | 209° |
| 2026-05-06 20:47 | 44.23365 | 5.54597 | 32939 ft | 483 kts | 209° |
| 2026-05-06 20:47 | 44.17157 | 5.51204 | 32937 ft | 483 kts | 209° |
| 2026-05-06 20:48 | 44.10908 | 5.47800 | 32942 ft | 482 kts | 209° |
| 2026-05-06 20:48 | 44.04661 | 5.44402 | 32954 ft | 483 kts | 209° |
| 2026-05-06 20:49 | 43.98460 | 5.41040 | 32964 ft | 482 kts | 209° |
| 2026-05-06 20:49 | 43.92223 | 5.37662 | 32965 ft | 483 kts | 209° |
| 2026-05-06 20:50 | 43.85963 | 5.34279 | 32961 ft | 482 kts | 208° |
| 2026-05-06 20:50 | 43.79743 | 5.30924 | 32966 ft | 482 kts | 208° |
| 2026-05-06 20:51 | 43.73505 | 5.27567 | 32966 ft | 483 kts | 208° |
| 2026-05-06 20:51 | 43.67285 | 5.24226 | 32967 ft | 484 kts | 208° |
| 2026-05-06 20:52 | 43.61023 | 5.20873 | 32966 ft | 483 kts | 208° |
| 2026-05-06 20:52 | 43.54771 | 5.17530 | 32967 ft | 483 kts | 208° |
| 2026-05-06 20:53 | 43.48555 | 5.14215 | 32968 ft | 483 kts | 208° |
| 2026-05-06 20:53 | 43.42294 | 5.10884 | 32968 ft | 483 kts | 208° |
| 2026-05-06 20:54 | 43.36362 | 5.06968 | 32975 ft | 469 kts | 221° |
| 2026-05-06 20:54 | 43.30967 | 5.01952 | 32968 ft | 468 kts | 222° |
| 2026-05-06 20:55 | 43.25649 | 4.96978 | 32967 ft | 463 kts | 222° |
| 2026-05-06 20:55 | 43.20374 | 4.92033 | 32967 ft | 460 kts | 222° |
| 2026-05-06 20:56 | 43.15094 | 4.87086 | 32967 ft | 457 kts | 221° |
| 2026-05-06 20:56 | 43.09874 | 4.82206 | 32966 ft | 454 kts | 221° |
| 2026-05-06 20:57 | 43.04690 | 4.77462 | 32966 ft | 455 kts | 218° |
| 2026-05-06 20:57 | 42.99147 | 4.73210 | 32966 ft | 461 kts | 216° |
| 2026-05-06 20:58 | 42.93541 | 4.68945 | 32966 ft | 464 kts | 215° |
| 2026-05-06 20:58 | 42.87880 | 4.64658 | 32961 ft | 467 kts | 215° |
| 2026-05-06 20:59 | 42.82235 | 4.60398 | 32960 ft | 467 kts | 214° |
| 2026-05-06 20:59 | 42.76563 | 4.56126 | 32961 ft | 467 kts | 215° |
| 2026-05-06 21:00 | 42.70904 | 4.51872 | 32964 ft | 467 kts | 215° |
| 2026-05-06 21:00 | 42.65258 | 4.47638 | 32969 ft | 467 kts | 215° |
| 2026-05-06 21:01 | 42.59566 | 4.43377 | 32974 ft | 467 kts | 215° |
| 2026-05-06 21:01 | 42.53918 | 4.39157 | 32978 ft | 467 kts | 215° |
| 2026-05-06 21:02 | 42.48223 | 4.34912 | 32983 ft | 467 kts | 214° |
| 2026-05-06 21:02 | 42.42530 | 4.30677 | 32996 ft | 468 kts | 214° |
| 2026-05-06 21:03 | 42.36874 | 4.26478 | 32996 ft | 467 kts | 214° |
| 2026-05-06 21:03 | 42.31187 | 4.22266 | 32996 ft | 467 kts | 214° |
| 2026-05-06 21:04 | 42.25496 | 4.18058 | 32996 ft | 467 kts | 214° |
| 2026-05-06 21:04 | 42.19799 | 4.13855 | 32996 ft | 467 kts | 214° |
| 2026-05-06 21:05 | 42.14148 | 4.09696 | 32995 ft | 467 kts | 214° |
| 2026-05-06 21:05 | 42.08438 | 4.05501 | 32995 ft | 466 kts | 214° |
| 2026-05-06 21:06 | 42.02780 | 4.01354 | 32995 ft | 467 kts | 214° |
| 2026-05-06 21:06 | 41.97105 | 3.97202 | 32995 ft | 467 kts | 214° |
| 2026-05-06 21:07 | 41.91213 | 3.93499 | 33001 ft | 475 kts | 202° |
| 2026-05-06 21:07 | 41.84730 | 3.91690 | 32990 ft | 481 kts | 195° |
| 2026-05-06 21:08 | 41.78141 | 3.90132 | 32991 ft | 481 kts | 195° |
| 2026-05-06 21:08 | 41.71551 | 3.88602 | 32991 ft | 481 kts | 195° |
| 2026-05-06 21:09 | 41.64985 | 3.87089 | 32991 ft | 481 kts | 195° |
| 2026-05-06 21:09 | 41.58423 | 3.85582 | 32991 ft | 481 kts | 195° |
| 2026-05-06 21:10 | 41.51834 | 3.84069 | 32991 ft | 481 kts | 195° |
| 2026-05-06 21:10 | 41.45269 | 3.82564 | 32992 ft | 481 kts | 195° |
| 2026-05-06 21:11 | 41.38698 | 3.81062 | 32992 ft | 481 kts | 195° |
| 2026-05-06 21:11 | 41.32149 | 3.79568 | 32992 ft | 481 kts | 195° |
| 2026-05-06 21:12 | 41.25571 | 3.78070 | 32992 ft | 481 kts | 195° |
| 2026-05-06 21:12 | 41.18980 | 3.76572 | 32993 ft | 481 kts | 195° |
| 2026-05-06 21:13 | 41.12590 | 3.74463 | 33000 ft | 473 kts | 206° |
| 2026-05-06 21:13 | 41.06457 | 3.71343 | 32993 ft | 473 kts | 206° |
| 2026-05-06 21:14 | 41.00313 | 3.68198 | 32993 ft | 474 kts | 205° |
| 2026-05-06 21:14 | 40.94190 | 3.65058 | 32996 ft | 475 kts | 205° |
| 2026-05-06 21:15 | 40.88072 | 3.61926 | 32990 ft | 474 kts | 205° |
| 2026-05-06 21:15 | 40.81938 | 3.58787 | 32989 ft | 474 kts | 205° |
| 2026-05-06 21:16 | 40.75810 | 3.55657 | 32993 ft | 475 kts | 205° |
| 2026-05-06 21:16 | 40.69685 | 3.52535 | 32994 ft | 474 kts | 205° |
| 2026-05-06 21:17 | 40.63542 | 3.49410 | 32993 ft | 475 kts | 205° |
| 2026-05-06 21:17 | 40.57411 | 3.46296 | 32992 ft | 474 kts | 205° |
| 2026-05-06 21:18 | 40.51246 | 3.43171 | 32990 ft | 475 kts | 205° |
| 2026-05-06 21:18 | 40.45135 | 3.40079 | 32988 ft | 474 kts | 205° |
| 2026-05-06 21:19 | 40.38962 | 3.36961 | 32990 ft | 478 kts | 205° |
| 2026-05-06 21:19 | 40.32792 | 3.33848 | 32995 ft | 478 kts | 204° |
| 2026-05-06 21:20 | 40.26588 | 3.30721 | 32995 ft | 478 kts | 204° |
| 2026-05-06 21:20 | 40.20430 | 3.27619 | 32994 ft | 477 kts | 204° |
| 2026-05-06 21:21 | 40.14263 | 3.24517 | 32996 ft | 478 kts | 204° |
| 2026-05-06 21:21 | 40.08051 | 3.21395 | 32996 ft | 478 kts | 204° |
| 2026-05-06 21:22 | 40.01886 | 3.18299 | 32994 ft | 478 kts | 204° |
| 2026-05-06 21:22 | 39.95713 | 3.15201 | 32993 ft | 478 kts | 204° |
| 2026-05-06 21:23 | 39.89520 | 3.12096 | 32994 ft | 478 kts | 204° |
| 2026-05-06 21:23 | 39.83336 | 3.08999 | 32992 ft | 477 kts | 204° |
| 2026-05-06 21:24 | 39.77188 | 3.05921 | 32994 ft | 476 kts | 204° |
| 2026-05-06 21:24 | 39.71053 | 3.02854 | 32991 ft | 474 kts | 204° |
| 2026-05-06 21:25 | 39.64900 | 2.99779 | 32992 ft | 474 kts | 204° |
| 2026-05-06 21:25 | 39.58785 | 2.96727 | 32992 ft | 473 kts | 204° |
| 2026-05-06 21:26 | 39.52670 | 2.93677 | 32993 ft | 472 kts | 203° |
| 2026-05-06 21:26 | 39.46589 | 2.90646 | 32992 ft | 471 kts | 203° |
| 2026-05-06 21:27 | 39.40488 | 2.87608 | 32991 ft | 471 kts | 203° |
| 2026-05-06 21:27 | 39.34373 | 2.84567 | 32993 ft | 471 kts | 203° |
| 2026-05-06 21:28 | 39.28311 | 2.81555 | 32994 ft | 471 kts | 203° |
| 2026-05-06 21:28 | 39.22179 | 2.78510 | 32991 ft | 471 kts | 203° |
| 2026-05-06 21:29 | 39.16088 | 2.75488 | 32992 ft | 471 kts | 203° |
| 2026-05-06 21:29 | 39.10011 | 2.72476 | 32992 ft | 471 kts | 203° |
| 2026-05-06 21:30 | 39.03916 | 2.69456 | 32994 ft | 471 kts | 203° |
| 2026-05-06 21:30 | 38.97796 | 2.66424 | 32994 ft | 474 kts | 202° |
| 2026-05-06 21:31 | 38.91669 | 2.63390 | 32991 ft | 476 kts | 202° |
| 2026-05-06 21:31 | 38.85509 | 2.60344 | 32992 ft | 474 kts | 201° |
| 2026-05-06 21:32 | 38.79396 | 2.57327 | 32993 ft | 475 kts | 201° |
| 2026-05-06 21:32 | 38.70173 | 2.52781 | 32993 ft | 475 kts | 201° |
| 2026-05-06 21:33 | 38.64052 | 2.49767 | 32993 ft | 475 kts | 201° |
| 2026-05-06 21:33 | 38.57883 | 2.46732 | 32993 ft | 475 kts | 201° |
| 2026-05-06 21:34 | 38.51775 | 2.43729 | 32989 ft | 474 kts | 201° |
| 2026-05-06 21:34 | 38.45612 | 2.40702 | 32979 ft | 475 kts | 201° |
| 2026-05-06 21:35 | 38.39477 | 2.37691 | 32967 ft | 475 kts | 201° |
| 2026-05-06 21:35 | 38.33351 | 2.34687 | 32966 ft | 475 kts | 201° |
| 2026-05-06 21:36 | 38.27182 | 2.31664 | 32966 ft | 475 kts | 201° |
| 2026-05-06 21:36 | 38.21058 | 2.28667 | 32966 ft | 475 kts | 201° |
| 2026-05-06 21:37 | 38.14902 | 2.25656 | 32966 ft | 475 kts | 201° |
| 2026-05-06 21:37 | 38.08774 | 2.22662 | 32966 ft | 475 kts | 201° |
| 2026-05-06 21:38 | 38.02628 | 2.19661 | 32966 ft | 475 kts | 201° |
| 2026-05-06 21:38 | 37.96463 | 2.16653 | 32966 ft | 475 kts | 201° |
| 2026-05-06 21:39 | 37.90348 | 2.13673 | 32966 ft | 475 kts | 201° |
| 2026-05-06 21:39 | 37.84147 | 2.10652 | 32966 ft | 475 kts | 201° |
| 2026-05-06 21:40 | 37.78038 | 2.07679 | 32966 ft | 475 kts | 201° |
| 2026-05-06 21:40 | 37.71872 | 2.04681 | 32966 ft | 475 kts | 201° |
| 2026-05-06 21:41 | 37.65732 | 2.01698 | 32966 ft | 475 kts | 201° |
| 2026-05-06 21:41 | 37.59609 | 1.98725 | 32966 ft | 475 kts | 201° |
| 2026-05-06 21:42 | 37.53461 | 1.95743 | 32966 ft | 475 kts | 201° |
| 2026-05-06 21:42 | 37.47329 | 1.92771 | 32966 ft | 475 kts | 201° |
| 2026-05-06 21:43 | 37.41184 | 1.89796 | 32966 ft | 475 kts | 201° |
| 2026-05-06 21:43 | 37.35014 | 1.86810 | 32966 ft | 475 kts | 201° |
| 2026-05-06 21:44 | 37.28872 | 1.83841 | 32966 ft | 475 kts | 201° |
| 2026-05-06 21:44 | 37.22733 | 1.80875 | 32966 ft | 475 kts | 201° |
| 2026-05-06 21:45 | 37.16581 | 1.77906 | 32966 ft | 475 kts | 201° |
| 2026-05-06 21:45 | 37.10476 | 1.74962 | 32966 ft | 475 kts | 201° |
| 2026-05-06 21:46 | 37.04341 | 1.72008 | 32965 ft | 468 kts | 202° |
| 2026-05-06 21:46 | 36.98391 | 1.69137 | 32962 ft | 456 kts | 200° |
| 2026-05-06 21:47 | 36.92446 | 1.66270 | 32966 ft | 462 kts | 199° |
| 2026-05-06 21:47 | 36.86482 | 1.63402 | 32968 ft | 461 kts | 199° |
| 2026-05-06 21:48 | 36.80537 | 1.60546 | 32968 ft | 461 kts | 199° |
| 2026-05-06 21:48 | 36.74576 | 1.57686 | 32968 ft | 461 kts | 199° |
| 2026-05-06 21:49 | 36.68577 | 1.54808 | 32968 ft | 461 kts | 199° |
| 2026-05-06 21:49 | 36.62638 | 1.51962 | 32967 ft | 461 kts | 199° |
| 2026-05-06 21:50 | 36.56682 | 1.49110 | 32967 ft | 461 kts | 199° |
| 2026-05-06 21:50 | 36.50691 | 1.46243 | 32967 ft | 461 kts | 199° |
| 2026-05-06 21:51 | 36.44735 | 1.43395 | 32967 ft | 461 kts | 199° |
| 2026-05-06 21:51 | 36.38770 | 1.40545 | 32967 ft | 461 kts | 199° |
| 2026-05-06 21:52 | 36.32787 | 1.37689 | 32967 ft | 462 kts | 199° |
| 2026-05-06 21:52 | 36.26905 | 1.34882 | 32966 ft | 461 kts | 199° |
| 2026-05-06 21:53 | 36.20891 | 1.32015 | 32964 ft | 461 kts | 199° |
| 2026-05-06 21:53 | 36.14891 | 1.29158 | 32964 ft | 461 kts | 199° |
| 2026-05-06 21:54 | 36.08914 | 1.26313 | 32964 ft | 462 kts | 199° |
| 2026-05-06 21:54 | 36.02963 | 1.23483 | 32963 ft | 461 kts | 199° |
| 2026-05-06 21:55 | 35.96999 | 1.20649 | 32963 ft | 461 kts | 199° |
| 2026-05-06 21:55 | 35.91041 | 1.17819 | 32962 ft | 461 kts | 199° |
| 2026-05-06 21:56 | 35.85070 | 1.14985 | 32966 ft | 460 kts | 199° |
| 2026-05-06 21:56 | 35.79143 | 1.12174 | 32967 ft | 459 kts | 199° |
| 2026-05-06 21:57 | 35.73173 | 1.09345 | 32966 ft | 459 kts | 199° |
| 2026-05-06 21:57 | 35.67238 | 1.06534 | 32969 ft | 457 kts | 199° |
| 2026-05-06 21:58 | 35.61337 | 1.03741 | 32964 ft | 457 kts | 199° |
| 2026-05-06 21:58 | 35.55422 | 1.00944 | 32967 ft | 457 kts | 199° |
| 2026-05-06 21:59 | 35.49552 | 0.98171 | 32966 ft | 456 kts | 199° |
| 2026-05-06 21:59 | 35.43650 | 0.95385 | 32965 ft | 455 kts | 198° |
| 2026-05-06 22:00 | 35.37758 | 0.92605 | 32962 ft | 455 kts | 198° |
| 2026-05-06 22:00 | 35.31890 | 0.89839 | 32963 ft | 455 kts | 199° |
| 2026-05-06 22:01 | 35.25975 | 0.87053 | 32963 ft | 455 kts | 199° |
| 2026-05-06 22:01 | 35.20094 | 0.84284 | 32964 ft | 455 kts | 199° |
| 2026-05-06 22:02 | 35.14187 | 0.81505 | 32965 ft | 456 kts | 198° |
| 2026-05-06 22:02 | 35.08322 | 0.78749 | 32965 ft | 455 kts | 199° |
| 2026-05-06 22:03 | 35.02416 | 0.75975 | 32963 ft | 455 kts | 199° |
| 2026-05-06 22:03 | 34.96612 | 0.73257 | 32961 ft | 444 kts | 200° |
| 2026-05-06 22:04 | 34.90859 | 0.70567 | 32960 ft | 444 kts | 202° |
| 2026-05-06 22:04 | 34.85057 | 0.67854 | 32965 ft | 451 kts | 204° |
| 2026-05-06 22:05 | 34.79223 | 0.65122 | 32967 ft | 449 kts | 204° |
| 2026-05-06 22:05 | 34.73443 | 0.62416 | 32966 ft | 450 kts | 203° |
| 2026-05-06 22:06 | 34.67614 | 0.59692 | 32963 ft | 448 kts | 204° |
| 2026-05-06 22:06 | 34.61797 | 0.56971 | 32962 ft | 450 kts | 204° |
| 2026-05-06 22:07 | 34.55997 | 0.54264 | 32967 ft | 449 kts | 204° |
| 2026-05-06 22:07 | 34.50166 | 0.51543 | 32963 ft | 449 kts | 203° |
| 2026-05-06 22:08 | 34.44365 | 0.48838 | 32964 ft | 449 kts | 204° |
| 2026-05-06 22:08 | 34.38558 | 0.46131 | 32958 ft | 449 kts | 204° |
| 2026-05-06 22:09 | 34.32725 | 0.43413 | 32959 ft | 449 kts | 204° |
| 2026-05-06 22:09 | 34.26939 | 0.40721 | 32963 ft | 451 kts | 203° |
| 2026-05-06 22:10 | 34.21101 | 0.38004 | 32959 ft | 449 kts | 204° |
| 2026-05-06 22:10 | 34.15310 | 0.35312 | 32962 ft | 450 kts | 204° |
| 2026-05-06 22:11 | 34.09503 | 0.32615 | 32965 ft | 449 kts | 203° |
| 2026-05-06 22:11 | 34.03663 | 0.29905 | 32969 ft | 450 kts | 203° |
| 2026-05-06 22:12 | 33.97865 | 0.27216 | 32959 ft | 449 kts | 203° |
| 2026-05-06 22:12 | 33.92029 | 0.24512 | 32967 ft | 450 kts | 203° |
| 2026-05-06 22:13 | 33.86225 | 0.21824 | 32967 ft | 450 kts | 203° |
| 2026-05-06 22:13 | 33.80423 | 0.19137 | 32970 ft | 449 kts | 203° |
| 2026-05-06 22:14 | 33.74594 | 0.16440 | 32969 ft | 449 kts | 203° |
| 2026-05-06 22:14 | 33.68784 | 0.13754 | 32972 ft | 450 kts | 203° |
| 2026-05-06 22:15 | 33.62963 | 0.11064 | 32967 ft | 450 kts | 203° |
| 2026-05-06 22:15 | 33.57129 | 0.08371 | 32948 ft | 449 kts | 203° |
| 2026-05-06 22:16 | 33.51323 | 0.05692 | 32939 ft | 449 kts | 203° |
| 2026-05-06 22:16 | 33.45530 | 0.03022 | 32936 ft | 449 kts | 203° |
| 2026-05-06 22:17 | 33.39718 | 0.00344 | 32939 ft | 450 kts | 203° |
| 2026-05-06 22:17 | 33.33885 | -0.02342 | 32936 ft | 449 kts | 203° |
| 2026-05-06 22:18 | 33.28083 | -0.05011 | 32939 ft | 450 kts | 204° |
| 2026-05-06 22:18 | 33.22282 | -0.07678 | 32937 ft | 450 kts | 203° |
| 2026-05-06 22:19 | 33.16460 | -0.10354 | 32936 ft | 449 kts | 203° |
| 2026-05-06 22:19 | 33.10622 | -0.13036 | 32935 ft | 450 kts | 203° |
| 2026-05-06 22:20 | 33.04781 | -0.15714 | 32936 ft | 451 kts | 204° |
| 2026-05-06 22:20 | 32.98947 | -0.18388 | 32937 ft | 455 kts | 204° |
| 2026-05-06 22:21 | 32.93028 | -0.21101 | 32936 ft | 457 kts | 204° |
| 2026-05-06 22:21 | 32.87115 | -0.23809 | 32937 ft | 457 kts | 204° |
| 2026-05-06 22:22 | 32.81199 | -0.26516 | 32938 ft | 457 kts | 204° |
| 2026-05-06 22:22 | 32.75316 | -0.29207 | 32936 ft | 456 kts | 204° |
| 2026-05-06 22:23 | 32.69367 | -0.31925 | 32939 ft | 457 kts | 204° |
| 2026-05-06 22:23 | 32.63480 | -0.34614 | 32936 ft | 457 kts | 204° |
| 2026-05-06 22:24 | 32.57554 | -0.37318 | 32935 ft | 456 kts | 205° |
| 2026-05-06 22:24 | 32.51656 | -0.40009 | 32937 ft | 457 kts | 204° |
| 2026-05-06 22:25 | 32.45745 | -0.42703 | 32938 ft | 456 kts | 204° |
| 2026-05-06 22:25 | 32.39864 | -0.45382 | 32935 ft | 458 kts | 205° |
| 2026-05-06 22:26 | 32.33937 | -0.48082 | 32937 ft | 457 kts | 205° |
| 2026-05-06 22:26 | 32.28054 | -0.50759 | 32936 ft | 456 kts | 205° |
| 2026-05-06 22:27 | 32.22138 | -0.53448 | 32942 ft | 456 kts | 204° |
| 2026-05-06 22:27 | 32.16232 | -0.56132 | 32944 ft | 457 kts | 204° |
| 2026-05-06 22:28 | 32.10332 | -0.58812 | 32947 ft | 456 kts | 205° |
| 2026-05-06 22:28 | 32.04440 | -0.61487 | 32954 ft | 458 kts | 205° |
| 2026-05-06 22:29 | 31.98516 | -0.64172 | 32956 ft | 456 kts | 204° |
| 2026-05-06 22:29 | 31.92581 | -0.66861 | 32970 ft | 457 kts | 204° |
| 2026-05-06 22:30 | 31.86661 | -0.69542 | 32969 ft | 456 kts | 204° |
| 2026-05-06 22:30 | 31.80761 | -0.72212 | 32968 ft | 457 kts | 204° |
| 2026-05-06 22:31 | 31.74862 | -0.74881 | 32970 ft | 457 kts | 204° |
| 2026-05-06 22:31 | 31.68965 | -0.77546 | 32967 ft | 456 kts | 204° |
| 2026-05-06 22:32 | 31.63051 | -0.80217 | 32969 ft | 457 kts | 204° |
| 2026-05-06 22:32 | 31.57121 | -0.82894 | 32967 ft | 457 kts | 204° |
| 2026-05-06 22:33 | 31.51256 | -0.85539 | 32966 ft | 457 kts | 204° |
| 2026-05-06 22:33 | 31.45314 | -0.88219 | 32959 ft | 457 kts | 204° |
| 2026-05-06 22:34 | 31.39423 | -0.90874 | 32938 ft | 458 kts | 204° |
| 2026-05-06 22:34 | 31.33471 | -0.93554 | 32918 ft | 459 kts | 204° |
| 2026-05-06 22:35 | 31.27568 | -0.96209 | 32912 ft | 458 kts | 204° |
| 2026-05-06 22:35 | 31.21642 | -0.98873 | 32912 ft | 454 kts | 204° |
| 2026-05-06 22:36 | 31.15774 | -1.01509 | 32913 ft | 454 kts | 204° |
| 2026-05-06 22:36 | 31.09923 | -1.04138 | 32907 ft | 452 kts | 204° |
| 2026-05-06 22:37 | 31.04100 | -1.06751 | 32910 ft | 450 kts | 204° |
| 2026-05-06 22:37 | 30.98277 | -1.09364 | 32907 ft | 447 kts | 204° |
| 2026-05-06 22:38 | 30.92536 | -1.11941 | 32905 ft | 444 kts | 203° |
| 2026-05-06 22:38 | 30.86802 | -1.14514 | 32912 ft | 443 kts | 202° |
| 2026-05-06 22:39 | 30.81074 | -1.17080 | 32913 ft | 442 kts | 202° |
| 2026-05-06 22:39 | 30.75366 | -1.19634 | 32913 ft | 441 kts | 202° |
| 2026-05-06 22:40 | 30.69670 | -1.22182 | 32912 ft | 440 kts | 202° |
| 2026-05-06 22:40 | 30.63978 | -1.24726 | 32912 ft | 440 kts | 202° |
| 2026-05-06 22:41 | 30.55400 | -1.28557 | 32910 ft | 440 kts | 202° |
| 2026-05-06 22:42 | 30.49734 | -1.31086 | 32911 ft | 440 kts | 202° |
| 2026-05-06 22:42 | 30.44037 | -1.33627 | 32907 ft | 440 kts | 202° |
| 2026-05-06 22:43 | 30.38314 | -1.36180 | 32907 ft | 440 kts | 202° |
| 2026-05-06 22:43 | 30.32634 | -1.38711 | 32907 ft | 440 kts | 202° |
| 2026-05-06 22:44 | 30.26923 | -1.41255 | 32909 ft | 441 kts | 202° |
| 2026-05-06 22:44 | 30.21255 | -1.43777 | 32907 ft | 441 kts | 202° |
| 2026-05-06 22:45 | 30.15545 | -1.46317 | 32905 ft | 440 kts | 202° |
| 2026-05-06 22:45 | 30.09861 | -1.48844 | 32906 ft | 440 kts | 202° |
| 2026-05-06 22:46 | 30.04129 | -1.51391 | 32904 ft | 440 kts | 202° |
| 2026-05-06 22:46 | 29.98447 | -1.53915 | 32907 ft | 441 kts | 202° |
| 2026-05-06 22:47 | 29.92762 | -1.56439 | 32904 ft | 440 kts | 202° |
| 2026-05-06 22:47 | 29.87044 | -1.58976 | 32912 ft | 441 kts | 202° |
| 2026-05-06 22:48 | 29.81373 | -1.61490 | 32910 ft | 440 kts | 202° |
| 2026-05-06 22:48 | 29.75677 | -1.64013 | 32911 ft | 440 kts | 202° |
| 2026-05-06 22:49 | 29.69948 | -1.66549 | 32916 ft | 441 kts | 202° |
| 2026-05-06 22:49 | 29.64270 | -1.69062 | 32916 ft | 440 kts | 202° |
| 2026-05-06 22:50 | 29.58576 | -1.71580 | 32915 ft | 441 kts | 202° |
| 2026-05-06 22:50 | 29.52870 | -1.74103 | 32913 ft | 440 kts | 202° |
| 2026-05-06 22:51 | 29.47186 | -1.76614 | 32912 ft | 440 kts | 202° |
| 2026-05-06 22:51 | 29.41583 | -1.79035 | 32908 ft | 422 kts | 201° |
| 2026-05-06 22:52 | 29.36199 | -1.81332 | 32904 ft | 406 kts | 201° |
| 2026-05-06 22:52 | 29.31021 | -1.83536 | 32905 ft | 390 kts | 201° |
| 2026-05-06 22:53 | 29.26062 | -1.85641 | 32905 ft | 376 kts | 201° |
| 2026-05-06 22:53 | 29.21250 | -1.87681 | 32902 ft | 362 kts | 201° |
| 2026-05-06 22:54 | 29.16645 | -1.89633 | 32901 ft | 349 kts | 201° |
| 2026-05-06 22:54 | 29.12194 | -1.91517 | 32903 ft | 336 kts | 201° |
| 2026-05-06 22:55 | 29.07920 | -1.93326 | 32901 ft | 323 kts | 201° |
| 2026-05-06 22:55 | 29.03795 | -1.95072 | 32900 ft | 311 kts | 201° |
| 2026-05-06 22:56 | 28.99814 | -1.96756 | 32899 ft | 298 kts | 201° |
| 2026-05-06 22:56 | 28.97897 | -1.97567 | 32898 ft | 292 kts | 201° |
| 2026-05-06 22:56 | 28.96029 | -1.98357 | 32896 ft | 285 kts | 200° |
| 2026-05-06 22:56 | 28.94194 | -1.99134 | 32898 ft | 278 kts | 200° |
| 2026-05-06 22:57 | 28.92406 | -1.99890 | 32897 ft | 271 kts | 200° |
| 2026-05-06 22:57 | 28.90679 | -2.00619 | 32896 ft | 264 kts | 200° |
| 2026-05-06 22:57 | 28.88980 | -2.01337 | 32900 ft | 256 kts | 201° |
| 2026-05-06 22:57 | 28.87350 | -2.02024 | 32899 ft | 248 kts | 200° |
| 2026-05-06 22:58 | 28.85751 | -2.02697 | 32897 ft | 239 kts | 200° |
| 2026-05-06 22:58 | 28.84234 | -2.03334 | 32892 ft | 230 kts | 200° |
| 2026-05-06 22:58 | 28.82766 | -2.03949 | 32878 ft | 220 kts | 200° |
| 2026-05-06 22:58 | 28.81340 | -2.04449 | 32718 ft | 212 kts | 174° |
| 2026-05-06 22:59 | 28.80308 | -2.04103 | 28156 ft | 367 kts | 249° |
| 2026-05-06 22:59 | 28.79878 | -2.06554 | 25520 ft | 349 kts | 264° |
| 2026-05-06 22:59 | 28.80104 | -2.07409 | 30155 ft | 95 kts | 337° |
| 2026-05-06 22:59 | 28.80452 | -2.07579 | 28730 ft | 188 kts | 314° |
| 2026-05-06 23:00 | 28.81400 | -2.08612 | 23379 ft | 367 kts | 294° |
| 2026-05-06 23:00 | 28.82071 | -2.10730 | 25444 ft | 224 kts | 265° |
| 2026-05-06 23:00 | 28.82206 | -2.11602 | 26938 ft | 113 kts | 263° |
| 2026-05-06 23:00 | 28.82355 | -2.12732 | 23270 ft | 297 kts | 308° |
| 2026-05-06 23:01 | 28.84204 | -2.12757 | 19762 ft | 358 kts | 58° |
| 2026-05-06 23:01 | 28.84218 | -2.10820 | 21640 ft | 211 kts | 156° |
| 2026-05-06 23:01 | 28.83041 | -2.10603 | 21947 ft | 171 kts | 186° |
| 2026-05-06 23:01 | 28.81780 | -2.10621 | 20933 ft | 201 kts | 171° |
| 2026-05-06 23:02 | 28.80394 | -2.10719 | 20251 ft | 211 kts | 214° |
| 2026-05-06 23:02 | 28.80247 | -2.12099 | 16579 ft | 343 kts | 348° |
| 2026-05-06 23:02 | 28.81872 | -2.10898 | 15696 ft | 283 kts | 96° |
| 2026-05-06 23:02 | 28.81245 | -2.10013 | 17963 ft | 129 kts | 180° |
| 2026-05-06 23:03 | 28.80237 | -2.09970 | 16582 ft | 198 kts | 163° |
| 2026-05-06 23:03 | 28.79237 | -2.08868 | 14881 ft | 246 kts | 89° |
| 2026-05-06 23:03 | 28.80070 | -2.07374 | 14975 ft | 218 kts | 21° |
| 2026-05-06 23:03 | 28.81326 | -2.07107 | 15474 ft | 169 kts | 11° |
| 2026-05-06 23:04 | 28.82210 | -2.06335 | 13264 ft | 249 kts | 109° |
| 2026-05-06 23:04 | 28.80728 | -2.06003 | 10732 ft | 295 kts | 220° |
| 2026-05-06 23:04 | 28.80475 | -2.07421 | 12983 ft | 159 kts | 313° |
| 2026-05-06 23:04 | 28.81129 | -2.08377 | 12156 ft | 196 kts | 281° |
| 2026-05-06 23:05 | 28.80589 | -2.09811 | 9834 ft | 260 kts | 195° |
| 2026-05-06 23:05 | 28.79218 | -2.09550 | 10737 ft | 163 kts | 124° |
| 2026-05-06 23:05 | 28.78723 | -2.08738 | 10864 ft | 138 kts | 135° |
| 2026-05-06 23:05 | 28.77653 | -2.08404 | 8686 ft | 244 kts | 208° |
| 2026-05-06 23:06 | 28.76994 | -2.10010 | 8362 ft | 224 kts | 296° |
| 2026-05-06 23:06 | 28.77889 | -2.10965 | 8842 ft | 161 kts | 354° |
| 2026-05-06 23:06 | 28.79026 | -2.11011 | 8050 ft | 181 kts | 24° |
| 2026-05-06 23:06 | 28.79867 | -2.10030 | 7421 ft | 181 kts | 88° |
| 2026-05-06 23:07 | 28.79439 | -2.08818 | 7148 ft | 178 kts | 153° |
| 2026-05-06 23:07 | 28.78243 | -2.09128 | 5736 ft | 240 kts | 249° |
| 2026-05-06 23:07 | 28.78694 | -2.10691 | 5155 ft | 207 kts | 349° |
| 2026-05-06 23:07 | 28.79692 | -2.10307 | 5562 ft | 147 kts | 68° |
| 2026-05-06 23:08 | 28.79516 | -2.09102 | 4587 ft | 196 kts | 137° |
| 2026-05-06 23:08 | 28.78204 | -2.08871 | 4085 ft | 205 kts | 217° |
| 2026-05-06 23:08 | 28.77597 | -2.10126 | 3850 ft | 181 kts | 284° |
| 2026-05-06 23:08 | 28.78206 | -2.11220 | 3469 ft | 162 kts | 345° |
| 2026-05-06 23:09 | 28.79199 | -2.10899 | 2714 ft | 180 kts | 67° |
| 2026-05-06 23:09 | 28.78721 | -2.09611 | 1905 ft | 215 kts | 163° |
| 2026-05-06 23:09 | 28.77490 | -2.10014 | 2117 ft | 173 kts | 240° |
| 2026-05-06 23:09 | 28.77250 | -2.11033 | 1730 ft | 166 kts | 302° |
| 2026-05-06 23:10 | 28.77335 | -2.11262 | 1721 ft | 0 kts | 327° |